Flight Track Log - Related Links

Times and Time Zones

All times are in EDT time to prevent confusion due to time zone crossing. See the EJA625 flight status page for this flight to view local times or setup timezone preferences in your user account.

Time Position Orientation Groundspeed Altitude Reporting Facility
EDT Latitude Longitude Course Direction KTS MPH feet Rate Location/Type
Sun 01:18:00 PM 33.6167 -117.9000 101° East 181 208 2,200  Level Southern California TRACON
Sun 01:22:22 PM 33.5714 -117.6194 82° East 267 307 11,400 2,273 Climbing Los Angeles Center
Sun 01:23:22 PM 33.5831 -117.5175 87° East 295 339 14,400 2,750 Climbing Los Angeles Center
Sun 01:24:22 PM 33.5883 -117.4103 88° East 308 354 16,900 2,450 Climbing Los Angeles Center
Sun 01:25:22 PM 33.5914 -117.3006 86° East 321 369 19,300 2,450 Climbing Los Angeles Center
Sun 01:26:22 PM 33.5989 -117.1736 89° East 334 384 21,800 2,200 Climbing Los Angeles Center
Sun 01:27:22 PM 33.6000 -117.0514 87° East 346 398 23,700 1,850 Climbing Los Angeles Center
Sun 01:28:22 PM 33.6050 -116.9267 87° East 365 420 25,500 1,800 Climbing Los Angeles Center
Sun 01:29:22 PM 33.6100 -116.7947 88° East 378 435 27,300 1,550 Climbing Los Angeles Center
Sun 01:30:22 PM 33.6147 -116.6600 88° East 390 449 28,600 1,400 Climbing Los Angeles Center
Sun 01:31:22 PM 33.6194 -116.5253 89° East 401 461 30,100 1,550 Climbing Los Angeles Center
Sun 01:32:22 PM 33.6219 -116.3856 87° East 406 467 31,700 1,500 Climbing Los Angeles Center
Sun 01:33:22 PM 33.6283 -116.2458 90° East 411 473 33,100 1,400 Climbing Los Angeles Center
Sun 01:34:22 PM 33.6286 -116.1086 91° East 411 473 34,500 1,350 Climbing Los Angeles Center
Sun 01:35:22 PM 33.6264 -115.9689 92° East 411 473 35,800 1,450 Climbing Los Angeles Center
Sun 01:36:22 PM 33.6219 -115.8344 91° East 411 473 37,400 1,200 Climbing Los Angeles Center
Sun 01:37:22 PM 33.6194 -115.6997 91° East 406 467 38,200 850 Climbing Los Angeles Center
Sun 01:38:22 PM 33.6169 -115.5675 91° East 401 461 39,100 800 Climbing Los Angeles Center
Sun 01:39:22 PM 33.6142 -115.4278 92° East 401 461 39,800 655 Climbing Los Angeles Center
Sun 01:40:21 PM 33.6114 -115.3206 91° East 401 461 40,400 600 Climbing Los Angeles Center
Sun 01:41:22 PM 33.6081 -115.1583 93° East 401 461 41,000 298 Climbing Los Angeles Center
Sun 01:42:22 PM 33.6028 -115.0189 92° East 407 468 41,000  Level Los Angeles Center
Sun 01:43:22 PM 33.5992 -114.8817 88° East 407 468 41,000  Level Los Angeles Center
Sun 01:44:22 PM 33.6042 -114.7394 80° East 417 480 41,000  Level Los Angeles Center
Sun 01:45:22 PM 33.6253 -114.5944 76° East 424 488 41,000  Level Los Angeles Center
Sun 01:46:22 PM 33.6547 -114.4542 76° East 429 494 41,000  Level Los Angeles Center
Sun 01:47:22 PM 33.6839 -114.3114 76° East 434 499 41,000  Level Los Angeles Center
Sun 01:48:22 PM 33.7131 -114.1683 78° East 434 499 41,000  Level Los Angeles Center
Sun 01:49:22 PM 33.7400 -114.0206 77° East 434 499 41,000  Level Los Angeles Center
Sun 01:51:03 PM 33.7881 -113.7736 77° East 447 514 41,000  Level Albuquerque Center
Sun 01:52:06 PM 33.8164 -113.6261 77° East 449 517 41,000  Level Albuquerque Center
Sun 01:53:09 PM 33.8442 -113.4764 78° East 450 518 41,000  Level Albuquerque Center
Sun 01:54:11 PM 33.8714 -113.3278 77° East 450 518 41,000  Level Albuquerque Center
Sun 01:55:14 PM 33.8997 -113.1775 78° East 452 520 41,000  Level Albuquerque Center
Sun 01:57:19 PM 33.9536 -112.8769 77° East 454 522 41,000  Level Albuquerque Center
Sun 01:58:21 PM 33.9814 -112.7267 78° East 454 522 41,000  Level Albuquerque Center
Sun 01:59:24 PM 34.0139 -112.5475 78° East 450 518 41,000  Level Albuquerque Center
Sun 02:03:34 PM 34.1222 -111.9306 78° East 453 521 41,000  Level Albuquerque Center
Sun 02:08:46 PM 34.2519 -111.1717 79° East 457 526 41,000  Level Albuquerque Center
Sun 02:09:49 PM 34.2767 -111.0183 79° East 458 527 41,000  Level Albuquerque Center
Sun 02:10:51 PM 34.3017 -110.8653 78° East 458 527 41,000  Level Albuquerque Center
Sun 02:11:53 PM 34.3331 -110.6794 78° East 461 531 41,000  Level Albuquerque Center
Sun 02:12:56 PM 34.3586 -110.5269 79° East 459 528 41,000  Level Albuquerque Center
Sun 02:13:58 PM 34.3850 -110.3636 79° East 459 528 41,000  Level Albuquerque Center
Sun 02:15:01 PM 34.4075 -110.2178 79° East 460 529 41,000  Level Albuquerque Center
Sun 02:16:03 PM 34.4342 -110.0456 80° East 464 534 41,000  Level Albuquerque Center
Sun 02:17:06 PM 34.4564 -109.8994 79° East 463 533 41,000  Level Albuquerque Center
Sun 02:18:08 PM 34.4836 -109.7300 79° East 461 531 41,000  Level Albuquerque Center
Sun 02:19:11 PM 34.5064 -109.5831 80° East 463 533 41,000  Level Albuquerque Center
Sun 02:20:26 PM 34.5356 -109.3858 79° East 465 535 41,000  Level Albuquerque Center
Sun 02:21:28 PM 34.5617 -109.2147 80° East 465 535 41,000  Level Albuquerque Center
Sun 02:22:31 PM 34.5836 -109.0694 80° East 462 532 41,000  Level Albuquerque Center
Sun 02:23:33 PM 34.6094 -108.8964 80° East 465 535 41,000  Level Albuquerque Center
Sun 02:24:36 PM 34.6308 -108.7500 80° East 464 534 41,000  Level Albuquerque Center
Sun 02:25:38 PM 34.6561 -108.5778 80° East 464 534 41,000  Level Albuquerque Center
Sun 02:26:41 PM 34.6792 -108.4200 80° East 463 533 41,000  Level Albuquerque Center
Sun 02:27:43 PM 34.7006 -108.2667 80° East 462 532 41,000  Level Albuquerque Center
Sun 02:28:45 PM 34.7228 -108.1125 81° East 463 533 41,000  Level Albuquerque Center
Sun 02:30:00 PM 34.7436 -107.9583 80° East 463 533 41,000  Level Albuquerque Center
Sun 02:31:03 PM 34.7700 -107.7697 81° East 463 533 41,000  Level Albuquerque Center
Sun 02:32:05 PM 34.7942 -107.5906 81° East 460 529 41,000  Level Albuquerque Center
Sun 02:33:07 PM 34.8144 -107.4372 80° East 461 531 41,000  Level Albuquerque Center
Sun 02:34:09 PM 34.8356 -107.2836 81° East 462 532 41,000  Level Albuquerque Center
Sun 02:35:12 PM 34.8589 -107.1083 81° East 461 531 41,000  Level Albuquerque Center
Sun 02:36:14 PM 34.8781 -106.9606 81° East 462 532 41,000  Level Albuquerque Center
Sun 02:37:16 PM 34.8994 -106.7900 81° East 459 528 41,000  Level Albuquerque Center
Sun 02:38:18 PM 34.9181 -106.6444 81° East 456 525 41,000  Level Albuquerque Center
Sun 02:39:21 PM 34.9369 -106.4947 82° East 460 529 41,000  Level Albuquerque Center
Sun 02:40:23 PM 34.9550 -106.3397 81° East 464 534 41,000  Level Albuquerque Center
Sun 02:41:25 PM 34.9775 -106.1569 81° East 459 528 41,000  Level Albuquerque Center
Sun 02:42:27 PM 34.9964 -106.0028 81° East 459 528 41,000  Level Albuquerque Center
Sun 02:43:29 PM 35.0158 -105.8517 81° East 460 529 41,000  Level Albuquerque Center
Sun 02:44:32 PM 35.0383 -105.6689 82° East 462 532 41,000  Level Albuquerque Center
Sun 02:45:34 PM 35.0556 -105.5117 81° East 463 533 41,000  Level Albuquerque Center
Sun 02:46:36 PM 35.0744 -105.3569 82° East 459 528 41,000  Level Albuquerque Center
Sun 02:47:39 PM 35.0928 -105.2022 82° East 458 527 41,000  Level Albuquerque Center
Sun 02:48:41 PM 35.1108 -105.0494 78° East 454 522 41,000  Level Albuquerque Center
Sun 02:49:43 PM 35.1361 -104.8972 74° East 453 521 41,000  Level Albuquerque Center
Sun 02:50:45 PM 35.1775 -104.7222 76° East 453 521 41,000  Level Albuquerque Center
Sun 02:51:48 PM 35.2081 -104.5697 76° East 454 522 41,000  Level Albuquerque Center
Sun 02:52:50 PM 35.2397 -104.4175 76° East 459 528 41,000  Level Albuquerque Center
Sun 02:53:52 PM 35.2700 -104.2678 76° East 456 525 41,000  Level Albuquerque Center
Sun 02:54:55 PM 35.2994 -104.1189 76° East 454 522 41,000  Level Albuquerque Center
Sun 02:55:57 PM 35.3319 -103.9533 77° East 454 522 41,000  Level Albuquerque Center
Sun 02:56:59 PM 35.3611 -103.8017 76° East 454 522 41,000  Level Albuquerque Center
Sun 02:58:01 PM 35.3911 -103.6503 76° East 454 522 41,000  Level Albuquerque Center
Sun 02:59:04 PM 35.4211 -103.4975 77° East 455 524 41,000  Level Albuquerque Center
Sun 03:00:18 PM 35.4556 -103.3172 77° East 460 529 41,000  Level Albuquerque Center
Sun 03:01:21 PM 35.4897 -103.1378 76° East 460 529 41,000  Level Albuquerque Center
Sun 03:02:23 PM 35.5197 -102.9839 78° East 460 529 41,000  Level Albuquerque Center
Sun 03:03:25 PM 35.5475 -102.8286 77° East 461 531 41,000  Level Albuquerque Center
Sun 03:04:28 PM 35.5797 -102.6578 77° East 461 531 41,000  Level Albuquerque Center
Sun 03:05:30 PM 35.6072 -102.5050 77° East 460 529 41,000  Level Albuquerque Center
Sun 03:06:32 PM 35.6358 -102.3519 78° East 458 527 41,000  Level Albuquerque Center
Sun 03:07:35 PM 35.6625 -102.1986 77° East 457 526 41,000  Level Albuquerque Center
Sun 03:08:37 PM 35.6906 -102.0467 77° East 455 524 41,000  Level Albuquerque Center
Sun 03:09:39 PM 35.7242 -101.8636 78° East 453 521 41,000  Level Albuquerque Center
Sun 03:10:41 PM 35.7511 -101.7106 81° East 454 522 41,000  Level Albuquerque Center
Sun 03:11:44 PM 35.7711 -101.5572 88° East 453 521 41,000  Level Albuquerque Center
Sun 03:12:46 PM 35.7756 -101.4017 88° East 453 521 41,000  Level Albuquerque Center
Sun 03:13:48 PM 35.7794 -101.2464 89° East 453 521 41,000  Level Albuquerque Center
Sun 03:14:50 PM 35.7825 -101.0906 89° East 453 521 41,000  Level Albuquerque Center
Sun 03:15:52 PM 35.7856 -100.9275 89° East 453 521 41,000  Level Albuquerque Center
Sun 03:16:55 PM 35.7886 -100.7717 89° East 454 522 41,000  Level Albuquerque Center
Sun 03:17:57 PM 35.7919 -100.5847 89° East 455 524 41,000  Level Albuquerque Center
Sun 03:18:59 PM 35.7939 -100.4286 89° East 455 524 41,000  Level Albuquerque Center
Sun 03:20:01 PM 35.7958 -100.2744 89° East 453 521 41,000  Level Albuquerque Center
Sun 03:21:04 PM 35.7978 -100.1217 89° East 448 516 41,000  Level Albuquerque Center
Sun 03:22:06 PM 35.7997 -99.9689 89° East 447 514 41,000  Level Albuquerque Center
Sun 03:23:08 PM 35.8011 -99.8178 89° East 444 511 41,000  Level Albuquerque Center
Sun 03:24:10 PM 35.8025 -99.6353 89° East 445 512 41,000  Level Albuquerque Center
Sun 03:25:13 PM 35.8042 -99.4833 90° East 445 512 41,000 -48 Level Albuquerque Center
Sun 03:26:15 PM 35.8050 -99.3325 90° East 445 512 40,900 -387 Descending Albuquerque Center
Sun 03:27:17 PM 35.8050 -99.1817 90° East 447 514 40,200 -957 Descending Albuquerque Center
Sun 03:28:33 PM 35.8053 -98.9694 90° East 436 502 38,700 -1,276 Descending Fort Worth Center
Sun 03:30:11 PM 35.8064 -98.7294 90° East 421 484 36,500 -1,481 Descending Kansas City Center
Sun 03:31:11 PM 35.8069 -98.5936 91° East 410 472 34,800 -1,700 Descending Kansas City Center
Sun 03:32:11 PM 35.8050 -98.4631 90° East 397 457 33,100 -1,650 Descending Kansas City Center
Sun 03:33:11 PM 35.8053 -98.3322 90° East 383 441 31,500 -1,650 Descending Kansas City Center
Sun 03:34:11 PM 35.8056 -98.1889 90° East 389 448 29,800 -1,700 Descending Kansas City Center
Sun 03:35:11 PM 35.8058 -98.0431 81° East 414 476 28,100 -1,600 Descending Kansas City Center
Sun 03:36:11 PM 35.8222 -97.9078 77° East 425 489 26,600 -1,600 Descending Kansas City Center
Sun 03:37:11 PM 35.8492 -97.7631 76° East 430 495 24,900 -1,300 Descending Kansas City Center
Sun 03:38:11 PM 35.8781 -97.6206 78° East 430 495 24,000 -850 Descending Kansas City Center
Sun 03:39:11 PM 35.9003 -97.4856 77° East 419 482 23,200 -1,150 Descending Kansas City Center
Sun 03:40:11 PM 35.9292 -97.3353 76° East 407 468 21,700 -1,450 Descending Kansas City Center
Sun 03:41:11 PM 35.9550 -97.2028 79° East 407 468 20,300 -1,500 Descending Kansas City Center
Sun 03:42:11 PM 35.9769 -97.0600 77° East 412 474 18,700 -1,900 Descending Kansas City Center
Sun 03:43:11 PM 36.0006 -96.9297 77° East 406 467 16,500 -2,250 Descending Kansas City Center
Sun 03:44:11 PM 36.0194 -96.8250 80° East 360 414 14,200 -2,270 Descending Kansas City Center
Sun 03:45:02 PM 36.0314 -96.7381 76° East 303 349 12,300 -2,050 Descending Kansas City Center
Sun 03:46:11 PM 36.0522 -96.6358 77° East 299 344 10,100 -2,093 Descending Kansas City Center
Sun 03:47:11 PM 36.0706 -96.5386 78° East 286 329 7,800 -2,050 Descending Kansas City Center
Sun 03:48:11 PM 36.0867 -96.4414 79° East 286 329 6,000 -1,600 Descending Kansas City Center
Sun 03:49:11 PM 36.1006 -96.3544 77° East 271 312 4,600 -1,600 Descending Kansas City Center
Sun 03:50:11 PM 36.1164 -96.2700 85° East 260 299 2,800 -1,050 Descending Kansas City Center
Sun 03:51:11 PM 36.1217 -96.1981 89° East 236 272 2,500 -150 Descending Kansas City Center
Sun 03:52:11 PM 36.1225 -96.1339 102° East 207 238 2,500  Level Kansas City Center
Sun 03:53:11 PM 36.1128 -96.0794 102° East 178 205 2,500  Level Kansas City Center
Sun 03:54:11 PM 36.1033 -96.0228 115° Southeast 166 191 2,500 -250 Level Kansas City Center
Sun 03:55:11 PM 36.0869 -95.9789 183° South 154 177 2,000 -850 Descending Kansas City Center
Sun 03:56:11 PM 36.0517 -95.9808 135° Southeast 116 133 800 -1,200 Descending Kansas City Center
Sun 04:06:32 PM 35.1854 -94.9213 135° Southeast  Level FlightAware Approximate

Login

Don't have an account? Register now (free) for customized features, flight alerts, and more!